Les Bruxellois — 9HB5703 — position and weather

sailwx.info

Track history (hours):
 
Tides and Currents Weather Stations Pressure Air Temp Water Temp Dewpoint Dewpoint Depression Visibility Wind Speed Wind Dir Waves Ship Positions

Les Bruxellois

Last reported at 2018-Jul-14 10:44 UTC. Time now 2018-Jul-17 22:53 UTC.
Position N 41°05' E 009°33'.

Length 34 m; draft 2.2 m.

Type: Pleasure craft. MMSI: 248407000.

Date/timePositionNaut miles runAvg speedWind from/ knotsBaromVisibWave heightAir tempDewpointWater temp
2018-Jul-14 10:44N 41°05' E 009°33'0 0.0
2018-Jul-14 06:47N 41°05' E 009°33'0 0.0
2018-Jul-14 04:14N 41°05' E 009°33'0 0.0
2018-Jul-14 03:57N 41°05' E 009°33'0 0.0
2018-Jul-13 19:19N 41°05' E 009°33'42 7.2
2018-Jul-13 13:30N 40°57' E 010°27'1612.2
2018-Jul-13 12:09N 40°55' E 010°49'2712.5
2018-Jul-13 09:58N 40°51' E 011°25'612.3
2018-Jul-13 09:27N 40°51' E 011°33'10912.4
2018-Jul-13 00:37N 40°33' E 013°55'312.2
2018-Jul-13 00:20N 40°32' E 013°59'412.3
2018-Jul-13 00:00N 40°32' E 014°05'711.1
2018-Jul-12 23:21N 40°32' E 014°14'1 0.1
2018-Jul-12 17:52N 40°32' E 014°15'0 0.0
2018-Jul-12 17:31N 40°32' E 014°15'0 0.0
2018-Jul-12 16:58N 40°32' E 014°15'0 0.0
2018-Jul-12 16:28N 40°32' E 014°15'0 0.0
2018-Jul-12 15:51N 40°32' E 014°15'0 0.0
2018-Jul-12 15:17N 40°33' E 014°15'0 0.0
2018-Jul-12 15:01N 40°32' E 014°15'0 0.0
2018-Jul-12 12:34N 40°32' E 014°15'0 6.5
2018-Jul-12 12:30N 40°32' E 014°15'2 3.5
2018-Jul-12 12:01N 40°34' E 014°14'0 0.0
2018-Jul-12 11:30N 40°34' E 014°14'0 0.0
2018-Jul-12 11:01N 40°34' E 014°14'0 0.0
2018-Jul-12 10:31N 40°34' E 014°14'0 0.1
2018-Jul-12 10:00N 40°34' E 014°14'1 0.3
2018-Jul-12 05:21N 40°32' E 014°14'0 0.0
2018-Jul-12 05:00N 40°32' E 014°14'0 0.0
2018-Jul-12 04:25N 40°32' E 014°14'0 0.0
2018-Jul-12 03:39N 40°32' E 014°14'0 0.0
2018-Jul-12 03:15N 40°32' E 014°14'0 0.0
2018-Jul-12 01:53N 40°32' E 014°14'0 0.0
2018-Jul-12 01:26N 40°32' E 014°14'0 0.0
2018-Jul-12 00:18N 40°32' E 014°14'0 0.0
2018-Jul-11 23:11N 40°32' E 014°14'0 0.0
2018-Jul-11 09:13N 40°32' E 014°14'0 0.0
2018-Jul-11 08:59N 40°32' E 014°14'0 0.0
2018-Jul-11 08:30N 40°32' E 014°14'0 0.0
2018-Jul-11 08:00N 40°32' E 014°14'0 0.0
2018-Jul-11 07:28N 40°32' E 014°14'0 0.0
2018-Jul-11 07:01N 40°32' E 014°14'0 0.0
2018-Jul-11 06:23N 40°32' E 014°14'0 0.0
2018-Jul-11 04:21N 40°32' E 014°14'0 0.0
2018-Jul-11 02:37N 40°32' E 014°14'0 0.0
2018-Jul-11 02:26N 40°32' E 014°14'0 0.0
2018-Jul-11 02:00N 40°32' E 014°14'0 0.0
2018-Jul-11 01:13N 40°32' E 014°14'0 0.0
2018-Jul-11 01:00N 40°32' E 014°14'0 0.0
2018-Jul-11 00:30N 40°32' E 014°14'0 0.0
2018-Jul-11 00:00N 40°32' E 014°14'0 0.0
2018-Jul-10 23:31N 40°32' E 014°14'0 0.0
2018-Jul-10 22:59N 40°32' E 014°14'0 0.0
2018-Jul-10 22:24N 40°32' E 014°14'0 0.0
2018-Jul-10 22:01N 40°32' E 014°14'0 0.0
2018-Jul-10 21:30N 40°32' E 014°14'0 0.0
2018-Jul-10 17:59N 40°32' E 014°14'0 0.0
2018-Jul-10 17:21N 40°32' E 014°14'0 0.0
2018-Jul-10 17:00N 40°32' E 014°14'1 1.3
2018-Jul-10 16:18N 40°32' E 014°13'2 6.5
2018-Jul-10 15:59N 40°34' E 014°12'4 9.2
2018-Jul-10 15:30N 40°34' E 014°18'510.0
2018-Jul-10 15:00N 40°34' E 014°24'510.0
2018-Jul-10 14:30N 40°37' E 014°29'0 0.3
2018-Jul-10 14:00N 40°37' E 014°30'0 0.0
2018-Jul-10 13:31N 40°37' E 014°30'0 0.0
2018-Jul-10 13:00N 40°37' E 014°30'2 3.4
2018-Jul-10 12:30N 40°36' E 014°31'3 0.1
2018-Jul-09 05:32N 40°36' E 014°35'110.8
2018-Jul-09 05:29N 40°36' E 014°34'612.9
2018-Jul-09 05:00N 40°34' E 014°27'712.5
2018-Jul-09 04:28N 40°34' E 014°18'612.3
2018-Jul-09 04:01N 40°35' E 014°10'612.1
2018-Jul-09 03:30N 40°37' E 014°03'612.0
2018-Jul-09 03:00N 40°39' E 013°55'611.9
2018-Jul-09 02:31N 40°42' E 013°49'612.3
2018-Jul-09 02:00N 40°46' E 013°42'612.1
2018-Jul-09 01:30N 40°50' E 013°36'9812.2
2018-Jul-08 17:25N 41°47' E 011°49'512.1
2018-Jul-08 17:00N 41°49' E 011°44'612.2
2018-Jul-08 16:30N 41°53' E 011°37'812.0
2018-Jul-08 15:52N 41°57' E 011°29'511.8
2018-Jul-08 15:27N 42°00' E 011°23'511.8
2018-Jul-08 15:00N 42°03' E 011°18'611.9
2018-Jul-08 14:30N 42°07' E 011°11'612.0
2018-Jul-08 13:58N 42°10' E 011°04'612.1
2018-Jul-08 13:29N 42°14' E 010°57'612.2
2018-Jul-08 13:00N 42°17' E 010°51'612.6
2018-Jul-08 12:30N 42°21' E 010°44'6412.2
2018-Jul-08 07:16N 42°57' E 009°32'912.4
2018-Jul-08 06:31N 43°02' E 009°21'013.3
2018-Jul-08 06:30N 43°02' E 009°21'612.8
2018-Jul-08 06:00N 43°05' E 009°13'912.6
2018-Jul-08 05:17N 43°08' E 009°01'312.5
2018-Jul-08 05:00N 43°09' E 008°57'612.6
2018-Jul-08 04:30N 43°11' E 008°49'612.6
2018-Jul-08 04:00N 43°13' E 008°41'612.5
2018-Jul-08 03:30N 43°15' E 008°33'612.8
2018-Jul-08 03:00N 43°18' E 008°25'612.6
2018-Jul-08 02:30N 43°20' E 008°16'812.6
2018-Jul-08 01:54N 43°22' E 008°06'512.6
2018-Jul-08 01:31N 43°24' E 008°00'612.7
2018-Jul-08 01:00N 43°26' E 007°52'612.6
2018-Jul-08 00:30N 43°28' E 007°44'612.5
2018-Jul-08 00:00N 43°30' E 007°36'712.4
2018-Jul-07 23:25N 43°33' E 007°26'612.8
2018-Jul-07 22:58N 43°35' E 007°19'8 6.7
2018-Jul-07 21:46N 43°38' E 007°08'0 0.0
2018-Jul-07 21:30N 43°38' E 007°08'  
2018-Jul-04 12:13N 43°36' E 007°09'  
Track history (hours):
 
Tides and Currents Weather Stations Pressure Air Temp Water Temp Dewpoint Dewpoint Depression Visibility Wind Speed Wind Dir Waves Ship Positions

Les Bruxellois

Last reported at 2018-Jul-14 10:44 UTC. Time now 2018-Jul-17 22:53 UTC.
Position N 41°05' E 009°33'.

Length 34 m; draft 2.2 m.

Type: Pleasure craft. MMSI: 248407000.

Date/timePositionNaut miles runAvg speedWind from/ knotsBaromVisibWave heightAir tempDewpointWater temp
2018-Jul-14 10:44N 41°05' E 009°33'0 0.0
2018-Jul-14 06:47N 41°05' E 009°33'0 0.0
2018-Jul-14 04:14N 41°05' E 009°33'0 0.0
2018-Jul-14 03:57N 41°05' E 009°33'0 0.0
2018-Jul-13 19:19N 41°05' E 009°33'42 7.2
2018-Jul-13 13:30N 40°57' E 010°27'1612.2
2018-Jul-13 12:09N 40°55' E 010°49'2712.5
2018-Jul-13 09:58N 40°51' E 011°25'612.3
2018-Jul-13 09:27N 40°51' E 011°33'10912.4
2018-Jul-13 00:37N 40°33' E 013°55'312.2
2018-Jul-13 00:20N 40°32' E 013°59'412.3
2018-Jul-13 00:00N 40°32' E 014°05'711.1
2018-Jul-12 23:21N 40°32' E 014°14'1 0.1
2018-Jul-12 17:52N 40°32' E 014°15'0 0.0
2018-Jul-12 17:31N 40°32' E 014°15'0 0.0
2018-Jul-12 16:58N 40°32' E 014°15'0 0.0
2018-Jul-12 16:28N 40°32' E 014°15'0 0.0
2018-Jul-12 15:51N 40°32' E 014°15'0 0.0
2018-Jul-12 15:17N 40°33' E 014°15'0 0.0
2018-Jul-12 15:01N 40°32' E 014°15'0 0.0
2018-Jul-12 12:34N 40°32' E 014°15'0 6.5
2018-Jul-12 12:30N 40°32' E 014°15'2 3.5
2018-Jul-12 12:01N 40°34' E 014°14'0 0.0
2018-Jul-12 11:30N 40°34' E 014°14'0 0.0
2018-Jul-12 11:01N 40°34' E 014°14'0 0.0
2018-Jul-12 10:31N 40°34' E 014°14'0 0.1
2018-Jul-12 10:00N 40°34' E 014°14'1 0.3
2018-Jul-12 05:21N 40°32' E 014°14'0 0.0
2018-Jul-12 05:00N 40°32' E 014°14'0 0.0
2018-Jul-12 04:25N 40°32' E 014°14'0 0.0
2018-Jul-12 03:39N 40°32' E 014°14'0 0.0
2018-Jul-12 03:15N 40°32' E 014°14'0 0.0
2018-Jul-12 01:53N 40°32' E 014°14'0 0.0
2018-Jul-12 01:26N 40°32' E 014°14'0 0.0
2018-Jul-12 00:18N 40°32' E 014°14'0 0.0
2018-Jul-11 23:11N 40°32' E 014°14'0 0.0
2018-Jul-11 09:13N 40°32' E 014°14'0 0.0
2018-Jul-11 08:59N 40°32' E 014°14'0 0.0
2018-Jul-11 08:30N 40°32' E 014°14'0 0.0
2018-Jul-11 08:00N 40°32' E 014°14'0 0.0
2018-Jul-11 07:28N 40°32' E 014°14'0 0.0
2018-Jul-11 07:01N 40°32' E 014°14'0 0.0
2018-Jul-11 06:23N 40°32' E 014°14'0 0.0
2018-Jul-11 04:21N 40°32' E 014°14'0 0.0
2018-Jul-11 02:37N 40°32' E 014°14'0 0.0
2018-Jul-11 02:26N 40°32' E 014°14'0 0.0
2018-Jul-11 02:00N 40°32' E 014°14'0 0.0
2018-Jul-11 01:13N 40°32' E 014°14'0 0.0
2018-Jul-11 01:00N 40°32' E 014°14'0 0.0
2018-Jul-11 00:30N 40°32' E 014°14'0 0.0
2018-Jul-11 00:00N 40°32' E 014°14'0 0.0
2018-Jul-10 23:31N 40°32' E 014°14'0 0.0
2018-Jul-10 22:59N 40°32' E 014°14'0 0.0
2018-Jul-10 22:24N 40°32' E 014°14'0 0.0
2018-Jul-10 22:01N 40°32' E 014°14'0 0.0
2018-Jul-10 21:30N 40°32' E 014°14'0 0.0
2018-Jul-10 17:59N 40°32' E 014°14'0 0.0
2018-Jul-10 17:21N 40°32' E 014°14'0 0.0
2018-Jul-10 17:00N 40°32' E 014°14'1 1.3
2018-Jul-10 16:18N 40°32' E 014°13'2 6.5
2018-Jul-10 15:59N 40°34' E 014°12'4 9.2
2018-Jul-10 15:30N 40°34' E 014°18'510.0
2018-Jul-10 15:00N 40°34' E 014°24'510.0
2018-Jul-10 14:30N 40°37' E 014°29'0 0.3
2018-Jul-10 14:00N 40°37' E 014°30'0 0.0
2018-Jul-10 13:31N 40°37' E 014°30'0 0.0
2018-Jul-10 13:00N 40°37' E 014°30'2 3.4
2018-Jul-10 12:30N 40°36' E 014°31'3 0.1
2018-Jul-09 05:32N 40°36' E 014°35'110.8
2018-Jul-09 05:29N 40°36' E 014°34'612.9
2018-Jul-09 05:00N 40°34' E 014°27'712.5
2018-Jul-09 04:28N 40°34' E 014°18'612.3
2018-Jul-09 04:01N 40°35' E 014°10'612.1
2018-Jul-09 03:30N 40°37' E 014°03'612.0
2018-Jul-09 03:00N 40°39' E 013°55'611.9
2018-Jul-09 02:31N 40°42' E 013°49'612.3
2018-Jul-09 02:00N 40°46' E 013°42'612.1
2018-Jul-09 01:30N 40°50' E 013°36'9812.2
2018-Jul-08 17:25N 41°47' E 011°49'512.1
2018-Jul-08 17:00N 41°49' E 011°44'612.2
2018-Jul-08 16:30N 41°53' E 011°37'812.0
2018-Jul-08 15:52N 41°57' E 011°29'511.8
2018-Jul-08 15:27N 42°00' E 011°23'511.8
2018-Jul-08 15:00N 42°03' E 011°18'611.9
2018-Jul-08 14:30N 42°07' E 011°11'612.0
2018-Jul-08 13:58N 42°10' E 011°04'612.1
2018-Jul-08 13:29N 42°14' E 010°57'612.2
2018-Jul-08 13:00N 42°17' E 010°51'612.6
2018-Jul-08 12:30N 42°21' E 010°44'6412.2
2018-Jul-08 07:16N 42°57' E 009°32'912.4
2018-Jul-08 06:31N 43°02' E 009°21'013.3
2018-Jul-08 06:30N 43°02' E 009°21'612.8
2018-Jul-08 06:00N 43°05' E 009°13'912.6
2018-Jul-08 05:17N 43°08' E 009°01'312.5
2018-Jul-08 05:00N 43°09' E 008°57'612.6
2018-Jul-08 04:30N 43°11' E 008°49'612.6
2018-Jul-08 04:00N 43°13' E 008°41'612.5
2018-Jul-08 03:30N 43°15' E 008°33'612.8
2018-Jul-08 03:00N 43°18' E 008°25'612.6
2018-Jul-08 02:30N 43°20' E 008°16'812.6
2018-Jul-08 01:54N 43°22' E 008°06'512.6
2018-Jul-08 01:31N 43°24' E 008°00'612.7
2018-Jul-08 01:00N 43°26' E 007°52'612.6
2018-Jul-08 00:30N 43°28' E 007°44'612.5
2018-Jul-08 00:00N 43°30' E 007°36'712.4
2018-Jul-07 23:25N 43°33' E 007°26'612.8
2018-Jul-07 22:58N 43°35' E 007°19'8 6.7
2018-Jul-07 21:46N 43°38' E 007°08'0 0.0
2018-Jul-07 21:30N 43°38' E 007°08'  
2018-Jul-04 12:13N 43°36' E 007°09'  

Dump ship's entire track history